createdAt,value
2022-10-21T00:00:51.141Z,20.35
2022-10-21T00:03:19.735Z,20.02
2022-10-21T00:05:47.707Z,16.25
2022-10-21T00:08:16.251Z,17.80
2022-10-21T00:10:43.740Z,20.33
2022-10-21T00:13:12.228Z,17.27
2022-10-21T00:15:39.718Z,22.17
2022-10-21T00:18:07.235Z,21.08
2022-10-21T00:20:37.437Z,17.20
2022-10-21T00:23:07.608Z,22.35
2022-10-21T00:25:35.099Z,20.33
2022-10-21T00:28:02.560Z,18.67
2022-10-21T00:30:30.089Z,17.98
2022-10-21T00:33:02.071Z,21.13
2022-10-21T00:35:33.775Z,21.02
2022-10-21T00:38:01.269Z,22.55
2022-10-21T00:40:28.879Z,17.88
2022-10-21T00:42:56.440Z,16.45
2022-10-21T00:45:29.529Z,18.40
2022-10-21T00:48:07.707Z,19.70
2022-10-21T00:50:42.426Z,16.48
2022-10-21T00:53:14.429Z,17.50
2022-10-21T00:55:49.467Z,20.10
2022-10-21T00:58:19.068Z,18.45
2022-10-21T01:00:46.690Z,17.65
2022-10-21T01:03:14.687Z,18.77
2022-10-21T01:05:42.975Z,18.70
2022-10-21T01:08:10.699Z,17.63
2022-10-21T01:10:38.848Z,17.88
2022-10-21T01:13:40.708Z,23.02
2022-10-21T01:16:13.716Z,18.95
2022-10-21T01:19:05.597Z,22.30
2022-10-21T01:21:40.414Z,19.35
2022-10-21T01:24:26.338Z,25.77
2022-10-21T01:26:53.788Z,22.60
2022-10-21T01:29:46.589Z,19.77
2022-10-21T01:32:28.424Z,19.88
2022-10-21T01:35:19.523Z,22.30
2022-10-21T01:38:24.578Z,21.60
2022-10-21T01:41:20.987Z,19.98
2022-10-21T01:44:12.568Z,22.98
2022-10-21T01:46:42.914Z,18.73
2022-10-21T01:49:27.155Z,21.38
2022-10-21T01:54:36.418Z,26.38
2022-10-21T01:57:06.586Z,23.45
2022-10-21T01:59:35.484Z,20.15
2022-10-21T02:02:06.688Z,20.25
2022-10-21T02:04:36.878Z,20.95
2022-10-21T02:07:04.877Z,23.08
2022-10-21T02:12:06.814Z,21.88
2022-10-21T02:14:40.919Z,21.92
2022-10-21T02:19:37.741Z,22.80
2022-10-21T02:22:06.863Z,19.23
2022-10-21T02:24:44.397Z,21.55
2022-10-21T02:27:12.056Z,29.23
2022-10-21T02:29:44.378Z,22.77
2022-10-21T02:32:48.907Z,25.73
2022-10-21T02:35:43.837Z,23.48
2022-10-21T02:38:23.881Z,26.70
2022-10-21T02:41:02.198Z,22.67
2022-10-21T02:43:38.786Z,23.60
2022-10-21T02:46:09.343Z,26.67
2022-10-21T02:48:40.228Z,24.58
2022-10-21T02:51:08.367Z,30.42
2022-10-21T02:53:36.386Z,23.45
2022-10-21T02:56:04.778Z,20.38
2022-10-21T02:58:32.566Z,26.23
2022-10-21T03:01:00.434Z,25.00
2022-10-21T03:03:30.023Z,23.48
2022-10-21T03:05:57.943Z,25.50
2022-10-21T03:08:25.436Z,26.27
2022-10-21T03:10:53.578Z,26.50
2022-10-21T03:13:22.511Z,22.75
2022-10-21T03:15:50.485Z,27.50
2022-10-21T03:18:18.818Z,25.77
2022-10-21T03:20:50.435Z,25.45
2022-10-21T03:23:19.135Z,25.90
2022-10-21T03:25:47.436Z,25.05
2022-10-21T03:28:16.111Z,25.35
2022-10-21T03:30:43.666Z,25.52
2022-10-21T03:33:11.195Z,27.77
2022-10-21T03:35:38.646Z,28.50
2022-10-21T03:38:06.143Z,24.23
2022-10-21T03:40:33.639Z,28.13
2022-10-21T03:43:01.117Z,29.27
2022-10-21T03:45:28.694Z,28.85
2022-10-21T03:47:56.546Z,27.35
2022-10-21T03:50:26.527Z,28.58
2022-10-21T03:52:54.932Z,25.05
2022-10-21T03:55:24.419Z,28.67
2022-10-21T03:57:52.818Z,26.92
2022-10-21T04:00:20.594Z,27.30
2022-10-21T04:02:48.205Z,26.92
2022-10-21T04:05:15.813Z,30.40
2022-10-21T04:07:43.675Z,34.40
2022-10-21T04:10:11.714Z,30.02
2022-10-21T04:12:39.648Z,29.02
2022-10-21T04:15:08.227Z,30.17
2022-10-21T04:17:35.762Z,30.67
2022-10-21T04:20:03.627Z,28.98
2022-10-21T04:22:31.122Z,32.22
2022-10-21T04:25:00.956Z,30.20
2022-10-21T04:27:31.736Z,28.80
2022-10-21T04:29:59.311Z,32.85
2022-10-21T04:32:26.682Z,29.98
2022-10-21T04:34:54.222Z,33.28
2022-10-21T04:37:21.821Z,29.60
2022-10-21T04:39:49.325Z,32.50
2022-10-21T04:42:16.909Z,26.55
2022-10-21T04:44:44.326Z,31.15
2022-10-21T04:47:11.835Z,29.95
2022-10-21T04:49:39.308Z,34.60
2022-10-21T04:52:06.785Z,32.88
2022-10-21T04:54:34.302Z,28.42
2022-10-21T04:57:01.746Z,28.38
2022-10-21T04:59:29.284Z,29.67
2022-10-21T05:01:56.780Z,28.30
2022-10-21T05:04:24.334Z,27.70
2022-10-21T05:06:51.950Z,27.13
2022-10-21T05:09:19.463Z,27.92
2022-10-21T05:11:46.985Z,26.70
2022-10-21T05:14:16.581Z,28.80
2022-10-21T05:16:45.165Z,28.13
2022-10-21T05:19:12.769Z,30.17
2022-10-21T05:21:40.269Z,28.00
2022-10-21T05:24:07.771Z,31.00
2022-10-21T05:26:35.340Z,30.83
2022-10-21T05:29:02.864Z,27.85
2022-10-21T05:31:30.865Z,27.75
2022-10-21T05:33:58.424Z,25.48
2022-10-21T05:36:26.044Z,27.88
2022-10-21T05:38:54.183Z,29.27
2022-10-21T05:41:21.655Z,29.52
2022-10-21T05:43:49.105Z,26.63
2022-10-21T05:46:16.554Z,29.35
2022-10-21T05:48:44.160Z,23.58
2022-10-21T05:51:11.800Z,31.65
2022-10-21T05:53:39.993Z,26.70
2022-10-21T05:56:08.492Z,25.27
2022-10-21T05:58:35.934Z,24.65
2022-10-21T06:01:03.870Z,30.90
2022-10-21T06:03:33.330Z,27.70
2022-10-21T06:06:03.633Z,26.98
2022-10-21T06:08:33.040Z,30.60
2022-10-21T06:11:01.980Z,30.60
2022-10-21T06:13:29.554Z,24.52
2022-10-21T06:15:57.739Z,27.98
2022-10-21T06:18:25.605Z,24.45
2022-10-21T06:20:53.099Z,29.08
2022-10-21T06:23:21.144Z,27.02
2022-10-21T06:26:04.304Z,25.45
2022-10-21T06:28:34.019Z,25.02
2022-10-21T06:31:01.684Z,24.65
2022-10-21T06:33:29.264Z,32.47
2022-10-21T06:35:56.752Z,27.45
2022-10-21T06:38:26.189Z,28.92
2022-10-21T06:41:01.372Z,26.35
2022-10-21T06:43:29.473Z,26.02
2022-10-21T06:46:09.209Z,27.65
2022-10-21T06:48:36.684Z,26.08
2022-10-21T06:51:09.937Z,24.63
2022-10-21T06:53:39.260Z,25.75
2022-10-21T06:56:10.122Z,23.33
2022-10-21T06:58:39.422Z,22.33
2022-10-21T07:01:21.680Z,21.73
2022-10-21T07:04:00.013Z,27.17
2022-10-21T07:06:27.695Z,23.38
2022-10-21T07:08:59.428Z,21.33
2022-10-21T07:11:28.423Z,26.80
2022-10-21T07:13:56.024Z,22.08
2022-10-21T07:16:29.951Z,22.25
2022-10-21T07:21:27.590Z,22.08
2022-10-21T07:23:57.944Z,23.10
2022-10-21T07:26:29.444Z,21.92
2022-10-21T07:28:59.154Z,21.80
2022-10-21T07:31:28.091Z,21.75
2022-10-21T07:33:56.257Z,21.73
2022-10-21T07:36:27.613Z,20.02
2022-10-21T07:38:58.602Z,21.63
2022-10-21T07:41:29.889Z,20.45
2022-10-21T07:43:58.218Z,19.70
2022-10-21T07:46:25.741Z,22.90
2022-10-21T07:48:53.893Z,22.85
2022-10-21T07:51:28.514Z,20.48
2022-10-21T07:54:00.050Z,20.38
2022-10-21T07:56:49.048Z,17.75
2022-10-21T07:59:18.003Z,15.48
2022-10-21T08:04:22.683Z,16.95
2022-10-21T08:06:50.181Z,20.23
2022-10-21T08:09:17.977Z,16.83
2022-10-21T08:11:46.041Z,18.38
2022-10-21T08:14:14.330Z,19.55
2022-10-21T08:16:42.543Z,18.50
2022-10-21T08:19:18.178Z,19.98
2022-10-21T08:21:45.690Z,18.10
2022-10-21T08:24:13.122Z,19.40
2022-10-21T08:26:40.651Z,22.73
2022-10-21T08:29:08.058Z,20.58
2022-10-21T08:31:35.597Z,22.23
2022-10-21T08:34:03.172Z,24.23
2022-10-21T08:36:30.717Z,18.70
2022-10-21T08:38:58.838Z,19.25
2022-10-21T08:41:29.071Z,24.80
2022-10-21T08:44:02.252Z,20.85
2022-10-21T08:47:27.051Z,19.05
2022-10-21T08:50:12.047Z,16.98
2022-10-21T08:52:51.171Z,19.00
2022-10-21T08:55:26.231Z,20.25
2022-10-21T08:57:54.860Z,19.17
2022-10-21T09:00:36.170Z,17.15
2022-10-21T09:03:40.280Z,21.02
2022-10-21T09:06:23.962Z,23.55
2022-10-21T09:09:36.649Z,21.20
2022-10-21T09:12:33.113Z,20.45
2022-10-21T09:15:37.751Z,19.30
2022-10-21T09:18:26.787Z,18.35
2022-10-21T09:21:05.948Z,19.40
2022-10-21T09:24:07.052Z,17.60
2022-10-21T09:26:43.023Z,19.88
2022-10-21T09:29:32.233Z,18.17
2022-10-21T09:32:05.841Z,18.52
2022-10-21T09:35:13.929Z,19.17
2022-10-21T09:37:41.880Z,18.67
2022-10-21T09:40:30.981Z,18.52
2022-10-21T09:43:00.812Z,16.77
2022-10-21T09:45:45.841Z,17.10
2022-10-21T09:48:19.960Z,16.30
2022-10-21T09:50:51.860Z,18.73
2022-10-21T09:53:26.459Z,17.40
2022-10-21T09:56:04.399Z,19.02
2022-10-21T09:58:48.687Z,19.05
2022-10-21T10:03:52.956Z,19.08
2022-10-21T10:06:42.370Z,21.33
2022-10-21T10:09:16.476Z,21.45
2022-10-21T10:11:51.850Z,21.13
2022-10-21T10:14:32.856Z,22.50
2022-10-21T10:17:33.970Z,22.60
2022-10-21T10:20:21.816Z,23.45
2022-10-21T10:22:58.424Z,21.80
2022-10-21T10:25:31.921Z,24.13
2022-10-21T10:28:02.041Z,25.67
2022-10-21T10:30:41.149Z,23.88
2022-10-21T10:33:13.888Z,25.33
2022-10-21T10:35:49.758Z,27.17
2022-10-21T10:38:26.769Z,30.02
2022-10-21T10:40:56.450Z,27.92
2022-10-21T10:43:35.400Z,33.47
2022-10-21T10:46:05.659Z,29.65
2022-10-21T10:48:46.600Z,32.55
2022-10-21T10:51:32.930Z,33.17
2022-10-21T10:54:15.340Z,32.03
2022-10-21T10:57:15.326Z,30.90
2022-10-21T10:59:52.336Z,33.17
2022-10-21T11:02:37.860Z,32.15
2022-10-21T11:05:23.681Z,34.35
2022-10-21T11:07:54.169Z,34.47
2022-10-21T11:10:40.148Z,36.10
2022-10-21T11:13:14.878Z,35.22
2022-10-21T11:16:01.649Z,36.20
2022-10-21T11:18:37.471Z,33.72
2022-10-21T11:21:29.477Z,38.38
2022-10-21T11:24:12.019Z,40.05
2022-10-21T11:27:21.346Z,37.40
2022-10-21T11:30:10.608Z,40.72
2022-10-21T11:33:17.798Z,37.75
2022-10-21T11:35:57.744Z,34.67
2022-10-21T11:42:38.703Z,32.15
2022-10-21T11:45:21.865Z,38.78
2022-10-21T11:48:06.091Z,38.60
2022-10-21T11:53:12.906Z,34.78
2022-10-21T11:56:07.670Z,36.60
2022-10-21T11:58:59.786Z,34.97
2022-10-21T12:01:56.152Z,35.38
2022-10-21T12:05:07.506Z,35.33
2022-10-21T12:07:43.770Z,36.65
2022-10-21T12:10:31.029Z,35.08
2022-10-21T12:13:28.140Z,39.45
2022-10-21T12:15:57.895Z,38.60
2022-10-21T12:18:29.090Z,34.78
2022-10-21T12:20:58.668Z,34.33
2022-10-21T12:23:29.496Z,35.80
2022-10-21T12:26:24.670Z,36.92
2022-10-21T12:29:14.491Z,38.90
2022-10-21T12:31:51.809Z,39.50
2022-10-21T12:34:19.829Z,39.25
2022-10-21T12:36:50.748Z,34.35
2022-10-21T12:39:49.495Z,40.95
2022-10-21T12:42:23.289Z,48.53
2022-10-21T12:44:53.118Z,40.22
2022-10-21T12:47:25.631Z,39.17
2022-10-21T12:50:07.555Z,42.92
2022-10-21T12:52:38.548Z,39.60
2022-10-21T12:55:16.939Z,38.28
2022-10-21T12:57:44.612Z,39.45
2022-10-21T13:00:29.942Z,40.08
2022-10-21T13:03:10.819Z,39.78
2022-10-21T13:05:38.205Z,37.67
2022-10-21T13:08:21.178Z,43.63
2022-10-21T13:11:06.436Z,39.35
2022-10-21T13:13:41.116Z,41.38
2022-10-21T13:16:20.888Z,36.63
2022-10-21T13:19:02.847Z,32.45
2022-10-21T13:21:35.478Z,31.45
2022-10-21T13:24:14.388Z,32.63
2022-10-21T13:26:51.219Z,30.20
2022-10-21T13:29:30.209Z,27.83
2022-10-21T13:32:18.689Z,27.17
2022-10-21T13:34:49.011Z,25.23
2022-10-21T13:37:24.226Z,25.35
2022-10-21T13:39:53.494Z,27.10
2022-10-21T13:42:24.799Z,24.10
2022-10-21T13:44:57.877Z,24.73
2022-10-21T13:47:31.918Z,25.67
2022-10-21T13:50:20.362Z,26.63
2022-10-21T13:52:47.925Z,22.33
2022-10-21T13:55:21.839Z,23.60
2022-10-21T13:57:51.423Z,27.38
2022-10-21T14:00:32.466Z,23.90
2022-10-21T14:03:05.949Z,18.77
2022-10-21T14:05:35.566Z,22.92
2022-10-21T14:08:05.606Z,21.02
2022-10-21T14:10:33.135Z,21.52
2022-10-21T14:13:00.825Z,20.17
2022-10-21T14:15:37.897Z,18.67
2022-10-21T14:18:06.184Z,17.98
2022-10-21T14:20:36.829Z,18.00
2022-10-21T14:23:06.941Z,18.38
2022-10-21T14:25:34.967Z,20.23
2022-10-21T14:28:04.422Z,20.35
2022-10-21T14:30:34.106Z,20.88
2022-10-21T14:33:04.193Z,23.38
2022-10-21T14:35:32.206Z,20.27
2022-10-21T14:38:02.811Z,21.40
2022-10-21T14:40:41.734Z,20.90
2022-10-21T14:43:12.208Z,21.33
2022-10-21T14:45:47.020Z,19.67
2022-10-21T14:48:14.357Z,20.90
2022-10-21T14:50:42.956Z,22.75
2022-10-21T14:53:16.959Z,22.10
2022-10-21T14:55:46.207Z,22.55
2022-10-21T14:58:23.041Z,21.73
2022-10-21T15:01:17.267Z,21.05
2022-10-21T15:03:50.865Z,19.67
2022-10-21T15:06:35.942Z,18.48
2022-10-21T15:09:12.501Z,17.98
2022-10-21T15:11:45.089Z,18.08
2022-10-21T15:14:12.477Z,15.63
2022-10-21T15:16:54.746Z,16.55
2022-10-21T15:19:26.486Z,15.52
2022-10-21T15:22:03.495Z,15.07
2022-10-21T15:24:30.926Z,15.45
2022-10-21T15:27:00.348Z,14.23
2022-10-21T15:29:35.017Z,18.48
2022-10-21T15:32:03.843Z,15.95
2022-10-21T15:34:31.570Z,15.45
2022-10-21T15:36:59.086Z,19.23
2022-10-21T15:39:26.667Z,17.25
2022-10-21T15:41:56.381Z,24.63
2022-10-21T15:44:27.888Z,19.67
2022-10-21T15:46:59.462Z,21.10
2022-10-21T15:49:32.222Z,23.40
2022-10-21T15:51:59.717Z,22.88
2022-10-21T15:54:27.181Z,24.88
2022-10-21T15:56:55.747Z,25.88
2022-10-21T15:59:29.073Z,25.67
2022-10-21T16:01:57.168Z,29.20
2022-10-21T16:04:25.485Z,33.70
2022-10-21T16:06:54.508Z,33.42
2022-10-21T16:09:25.523Z,33.55
2022-10-21T16:12:00.948Z,32.25
2022-10-21T16:14:30.767Z,35.45
2022-10-21T16:16:59.733Z,34.17
2022-10-21T16:19:28.048Z,33.97
2022-10-21T16:21:56.282Z,36.00
2022-10-21T16:24:23.644Z,36.65
2022-10-21T16:26:51.062Z,36.33
2022-10-21T16:29:21.525Z,32.70
2022-10-21T16:31:49.679Z,27.75
2022-10-21T16:34:17.274Z,30.00
2022-10-21T16:36:45.134Z,27.52
2022-10-21T16:39:18.830Z,25.25
2022-10-21T16:41:46.534Z,24.20
2022-10-21T16:44:14.576Z,21.27
2022-10-21T16:46:47.652Z,25.58
2022-10-21T16:49:18.495Z,22.27
2022-10-21T16:51:49.117Z,24.20
2022-10-21T16:54:16.744Z,22.67
2022-10-21T16:56:44.107Z,20.40
2022-10-21T16:59:11.901Z,22.80
2022-10-21T17:01:39.696Z,23.40
2022-10-21T17:04:07.378Z,19.42
2022-10-21T17:06:34.871Z,20.45
2022-10-21T17:09:02.360Z,23.73
2022-10-21T17:11:37.756Z,21.55
2022-10-21T17:14:08.427Z,21.65
2022-10-21T17:16:35.871Z,21.45
2022-10-21T17:19:03.525Z,27.38
2022-10-21T17:21:33.011Z,25.63
2022-10-21T17:24:02.685Z,26.55
2022-10-21T17:26:30.492Z,32.38
2022-10-21T17:28:58.343Z,33.75
2022-10-21T17:31:28.475Z,30.33
2022-10-21T17:33:58.841Z,31.80
2022-10-21T17:36:26.264Z,37.72
2022-10-21T17:38:53.773Z,36.00
2022-10-21T17:41:21.287Z,38.00
2022-10-21T17:43:48.801Z,34.85
2022-10-21T17:46:18.875Z,35.42
2022-10-21T17:48:50.895Z,37.25
2022-10-21T17:51:18.427Z,32.90
2022-10-21T17:53:51.725Z,36.70
2022-10-21T17:56:20.006Z,34.33
2022-10-21T17:58:52.485Z,35.80
2022-10-21T18:01:20.707Z,36.90
2022-10-21T18:03:48.474Z,35.42
2022-10-21T18:06:16.495Z,35.65
2022-10-21T18:08:44.218Z,36.17
2022-10-21T18:11:15.423Z,33.05
2022-10-21T18:13:43.497Z,37.53
2022-10-21T18:16:14.123Z,38.85
2022-10-21T18:21:20.203Z,32.13
2022-10-21T18:23:50.731Z,34.65
2022-10-21T18:26:24.835Z,33.83
2022-10-21T18:28:57.969Z,31.38
2022-10-21T18:31:29.844Z,33.83
2022-10-21T18:33:59.732Z,30.27
2022-10-21T18:36:27.894Z,30.00
2022-10-21T18:38:57.034Z,28.35
2022-10-21T18:41:25.141Z,27.85
2022-10-21T18:44:01.717Z,28.08
2022-10-21T18:46:30.081Z,25.85
2022-10-21T18:48:58.598Z,27.05
2022-10-21T18:51:26.491Z,29.42
2022-10-21T18:53:54.037Z,25.20
2022-10-21T18:56:24.488Z,25.85
2022-10-21T18:58:52.679Z,27.33
2022-10-21T19:01:21.640Z,25.30
2022-10-21T19:03:50.936Z,23.67
2022-10-21T19:06:41.536Z,22.13
2022-10-21T19:09:13.149Z,24.30
2022-10-21T19:11:44.158Z,22.38
2022-10-21T19:14:14.194Z,22.17
2022-10-21T19:16:44.219Z,23.60
2022-10-21T19:19:12.354Z,24.10
2022-10-21T19:21:39.774Z,24.10
2022-10-21T19:24:07.557Z,23.23
2022-10-21T19:26:37.218Z,25.95
2022-10-21T19:29:08.714Z,19.25
2022-10-21T19:31:38.541Z,23.20
2022-10-21T19:34:07.488Z,22.30
2022-10-21T19:36:35.203Z,23.23
2022-10-21T19:39:02.777Z,21.15
2022-10-21T19:41:30.382Z,20.63
2022-10-21T19:44:00.540Z,21.23
2022-10-21T19:46:30.877Z,23.83
2022-10-21T19:49:05.669Z,18.02
2022-10-21T19:51:34.010Z,20.50
2022-10-21T19:54:05.004Z,17.63
2022-10-21T19:56:34.733Z,15.25
2022-10-21T19:59:03.376Z,18.77
2022-10-21T20:01:32.794Z,14.07
2022-10-21T20:04:02.129Z,17.48
2022-10-21T20:06:35.494Z,15.00
2022-10-21T20:09:10.286Z,15.25
2022-10-21T20:11:39.900Z,15.93
2022-10-21T20:14:07.477Z,17.40
2022-10-21T20:16:37.924Z,14.13
2022-10-21T20:19:07.010Z,16.35
2022-10-21T20:21:35.928Z,13.10
2022-10-21T20:24:03.807Z,14.52
2022-10-21T20:26:31.316Z,14.30
2022-10-21T20:29:00.764Z,14.23
2022-10-21T20:31:28.819Z,14.73
2022-10-21T20:33:56.639Z,15.70
2022-10-21T20:36:27.459Z,13.02
2022-10-21T20:38:57.676Z,12.80
2022-10-21T20:41:33.738Z,12.02
2022-10-21T20:44:02.680Z,11.52
2022-10-21T20:46:35.144Z,12.38
2022-10-21T20:49:05.538Z,10.80
2022-10-21T20:51:34.413Z,10.55
2022-10-21T20:54:07.487Z,10.02
2022-10-21T20:56:37.349Z,10.23
2022-10-21T20:59:06.797Z,12.35
2022-10-21T21:01:37.542Z,9.68
2022-10-21T21:06:38.654Z,8.93
2022-10-21T21:11:54.349Z,9.60
2022-10-21T21:14:21.938Z,9.90
2022-10-21T21:16:49.364Z,10.02
2022-10-21T21:19:16.918Z,8.63
2022-10-21T21:21:44.314Z,7.55
2022-10-21T21:24:11.867Z,7.28
2022-10-21T21:26:40.156Z,9.52
2022-10-21T21:29:13.304Z,8.82
2022-10-21T21:31:41.754Z,12.50
2022-10-21T21:34:10.115Z,10.38
2022-10-21T21:36:37.960Z,7.40
2022-10-21T21:39:07.366Z,7.00
2022-10-21T21:41:35.567Z,7.18
2022-10-21T21:44:05.008Z,8.18
2022-10-21T21:46:32.493Z,6.55
2022-10-21T21:49:05.031Z,7.13
2022-10-21T21:51:34.640Z,7.35
2022-10-21T21:54:02.390Z,5.93
2022-10-21T21:56:29.966Z,7.65
2022-10-21T21:58:58.251Z,7.88
2022-10-21T22:01:28.172Z,6.50
2022-10-21T22:03:56.975Z,6.63
2022-10-21T22:06:28.456Z,5.38
2022-10-21T22:08:56.782Z,5.68
2022-10-21T22:11:26.474Z,7.05
2022-10-21T22:13:53.919Z,7.20
2022-10-21T22:16:24.346Z,8.05
2022-10-21T22:18:52.135Z,7.57
2022-10-21T22:21:20.008Z,6.68
2022-10-21T22:23:48.918Z,10.38
2022-10-21T22:26:18.837Z,11.90
2022-10-21T22:28:47.022Z,13.65
2022-10-21T22:31:16.981Z,9.40
2022-10-21T22:33:45.376Z,13.23
2022-10-21T22:36:12.793Z,13.68
2022-10-21T22:38:40.368Z,12.77
2022-10-21T22:41:12.214Z,12.82
2022-10-21T22:43:41.016Z,13.85
2022-10-21T22:48:55.976Z,13.15
2022-10-21T22:51:23.549Z,12.15
2022-10-21T22:53:55.299Z,11.43
2022-10-21T22:56:25.890Z,11.07
2022-10-21T22:58:53.809Z,9.93
2022-10-21T23:01:21.336Z,12.48
2022-10-21T23:03:48.868Z,11.95
2022-10-21T23:06:16.275Z,10.48
2022-10-21T23:08:43.857Z,11.02
2022-10-21T23:11:11.358Z,10.88
2022-10-21T23:13:47.363Z,11.85
2022-10-21T23:16:24.004Z,12.70
2022-10-21T23:18:51.449Z,11.02
2022-10-21T23:21:18.904Z,12.10
2022-10-21T23:23:46.387Z,10.50
2022-10-21T23:26:13.996Z,9.77
2022-10-21T23:28:41.412Z,12.35
2022-10-21T23:31:08.864Z,12.88
2022-10-21T23:33:36.404Z,10.38
2022-10-21T23:36:04.048Z,11.43
2022-10-21T23:38:31.550Z,10.98
2022-10-21T23:40:58.973Z,14.20
2022-10-21T23:43:26.474Z,12.75
2022-10-21T23:45:53.974Z,12.38
2022-10-21T23:48:21.624Z,12.00
2022-10-21T23:50:49.314Z,11.15
2022-10-21T23:53:16.797Z,12.20
2022-10-21T23:55:44.285Z,9.30
2022-10-21T23:58:11.755Z,10.32
